createdAt,value
2023-05-18T14:05:56.703Z,6.82
2023-05-18T14:07:59.694Z,12.75
2023-05-18T14:10:02.837Z,8.02
2023-05-18T14:12:06.429Z,6.20
2023-05-18T14:14:09.220Z,6.53
2023-05-18T14:16:12.164Z,5.30
2023-05-18T14:18:16.340Z,14.07
2023-05-18T14:20:19.696Z,5.88
2023-05-18T14:22:25.947Z,9.32
2023-05-18T14:24:28.905Z,9.73
2023-05-18T14:26:31.740Z,8.38
2023-05-18T14:28:34.653Z,8.68
2023-05-18T14:30:37.507Z,10.63
2023-05-18T14:32:40.472Z,5.47
2023-05-18T14:34:43.626Z,7.72
2023-05-18T14:36:46.517Z,7.60
2023-05-18T14:38:50.756Z,6.15
2023-05-18T14:40:53.697Z,7.45
2023-05-18T14:42:56.696Z,10.38
2023-05-18T14:44:59.570Z,6.38
2023-05-18T14:47:02.654Z,8.02
2023-05-18T14:49:05.570Z,7.50
2023-05-18T14:51:08.696Z,7.53
2023-05-18T14:53:11.545Z,7.15
2023-05-18T14:55:15.937Z,5.32
2023-05-18T14:57:18.795Z,12.07
2023-05-18T14:59:22.327Z,11.15
2023-05-18T15:01:25.271Z,7.38
2023-05-18T15:03:28.597Z,9.57
2023-05-18T15:05:31.655Z,5.90
2023-05-18T15:07:34.523Z,10.52
2023-05-18T15:09:37.361Z,6.75
2023-05-18T15:11:41.590Z,9.50
2023-05-18T15:13:44.506Z,11.32
2023-05-18T15:15:47.527Z,10.90
2023-05-18T15:17:50.532Z,11.60
2023-05-18T15:19:53.448Z,10.18
2023-05-18T15:21:56.309Z,7.10
2023-05-18T15:23:59.266Z,6.68
2023-05-18T15:26:02.742Z,7.93
2023-05-18T15:28:07.642Z,8.75
2023-05-18T15:30:12.749Z,8.38
2023-05-18T15:32:15.966Z,8.27
2023-05-18T15:34:19.134Z,7.72
2023-05-18T15:36:22.353Z,13.93
2023-05-18T15:38:29.791Z,6.65
2023-05-18T15:40:32.956Z,7.65
2023-05-18T15:42:36.073Z,8.18
2023-05-18T15:44:40.298Z,7.88
2023-05-18T15:46:43.611Z,7.50
2023-05-18T15:48:46.491Z,8.35
2023-05-18T15:50:49.417Z,7.32
2023-05-18T15:52:52.800Z,12.48
2023-05-18T15:54:55.731Z,9.43
2023-05-18T15:56:58.744Z,8.48
2023-05-18T15:59:01.520Z,9.50
2023-05-18T16:01:06.195Z,10.20
2023-05-18T16:03:09.276Z,10.38
2023-05-18T16:05:12.275Z,11.70
2023-05-18T16:07:15.759Z,8.57
2023-05-18T16:09:18.693Z,19.48
2023-05-18T16:11:21.687Z,8.07
2023-05-18T16:13:26.803Z,12.80
2023-05-18T16:15:29.712Z,12.70
2023-05-18T16:17:33.930Z,11.27
2023-05-18T16:19:36.764Z,8.75
2023-05-18T16:21:39.746Z,13.65
2023-05-18T16:23:42.783Z,12.13
2023-05-18T16:25:46.162Z,13.45
2023-05-18T16:27:48.968Z,11.10
2023-05-18T16:29:52.471Z,10.38
2023-05-18T16:34:01.704Z,9.63
2023-05-18T16:36:05.072Z,8.95
2023-05-18T16:38:07.937Z,5.60
2023-05-18T16:40:11.389Z,6.97
2023-05-18T16:42:14.310Z,8.02
2023-05-18T16:44:17.148Z,7.53
2023-05-18T16:46:20.620Z,9.05
2023-05-18T16:48:23.664Z,14.10
2023-05-18T16:50:28.886Z,7.90
2023-05-18T16:52:31.816Z,8.93
2023-05-18T16:54:34.798Z,8.32
2023-05-18T16:56:37.605Z,8.52
2023-05-18T16:58:40.435Z,11.25
2023-05-18T17:00:43.272Z,9.00
2023-05-18T17:02:46.488Z,7.80
2023-05-18T17:04:50.467Z,8.38
2023-05-18T17:06:54.746Z,5.57
2023-05-18T17:08:58.690Z,6.63
2023-05-18T17:11:01.703Z,7.80
2023-05-18T17:13:04.944Z,6.97
2023-05-18T17:15:12.553Z,7.78
2023-05-18T17:17:15.438Z,5.55
2023-05-18T17:19:19.046Z,7.28
2023-05-18T17:21:23.760Z,8.93
2023-05-18T17:23:27.993Z,6.97
2023-05-18T17:25:30.853Z,8.95
2023-05-18T17:27:36.789Z,5.22
2023-05-18T17:29:39.812Z,6.18
2023-05-18T17:31:45.406Z,7.25
2023-05-18T17:33:51.414Z,12.27
2023-05-18T17:35:54.396Z,5.38
2023-05-18T17:37:57.769Z,8.00
2023-05-18T17:40:02.085Z,13.85
2023-05-18T17:44:08.296Z,5.90
2023-05-18T17:46:11.231Z,7.60
2023-05-18T17:48:14.172Z,9.75
2023-05-18T17:50:17.231Z,11.48
2023-05-18T17:52:20.107Z,19.42
2023-05-18T17:54:22.969Z,8.93
2023-05-18T17:56:28.006Z,9.55
2023-05-18T17:58:30.864Z,9.80
2023-05-18T18:00:34.017Z,11.07
2023-05-18T18:02:37.088Z,13.57
2023-05-18T18:04:39.928Z,10.20
2023-05-18T18:06:43.216Z,9.90
2023-05-18T18:08:46.155Z,11.02
2023-05-18T18:10:49.002Z,6.60
2023-05-18T18:12:53.214Z,6.38
2023-05-18T18:14:56.064Z,8.55
2023-05-18T18:17:00.110Z,7.53
2023-05-18T18:19:03.990Z,7.82
2023-05-18T18:21:07.446Z,7.27
2023-05-18T18:23:10.290Z,5.60
2023-05-18T18:25:13.223Z,7.05
2023-05-18T18:27:19.330Z,8.52
2023-05-18T18:29:23.544Z,7.95
2023-05-18T18:31:26.611Z,7.75
2023-05-18T18:33:29.673Z,13.48
2023-05-18T18:35:32.614Z,11.38
2023-05-18T18:37:35.472Z,8.57
2023-05-18T18:39:38.482Z,9.45
2023-05-18T18:41:42.439Z,6.28
2023-05-18T18:43:45.721Z,6.97
2023-05-18T18:45:49.932Z,5.28
2023-05-18T18:47:52.726Z,9.40
2023-05-18T18:49:59.412Z,6.45
2023-05-18T18:52:02.235Z,5.82
2023-05-18T18:54:05.718Z,8.57
2023-05-18T18:56:08.889Z,7.43
2023-05-18T18:58:11.809Z,6.72
2023-05-18T19:00:16.926Z,7.38
2023-05-18T19:02:21.222Z,5.97
2023-05-18T19:04:24.124Z,9.82
2023-05-18T19:06:27.257Z,8.73
2023-05-18T19:08:30.498Z,5.38
2023-05-18T19:10:34.521Z,12.27
2023-05-18T19:12:37.486Z,12.23
2023-05-18T19:14:40.294Z,9.25
2023-05-18T19:16:43.264Z,10.10
2023-05-18T19:18:47.604Z,6.97
2023-05-18T19:20:50.542Z,8.10
2023-05-18T19:22:54.092Z,8.57
2023-05-18T19:24:56.937Z,9.35
2023-05-18T19:26:59.829Z,12.65
2023-05-18T19:29:02.663Z,8.23
2023-05-18T19:31:05.602Z,8.63
2023-05-18T19:33:08.617Z,8.13
2023-05-18T19:35:12.838Z,10.18
2023-05-18T19:37:15.665Z,8.13
2023-05-18T19:39:19.098Z,7.95
2023-05-18T19:41:23.868Z,8.85
2023-05-18T19:43:27.472Z,11.60
2023-05-18T19:45:30.646Z,10.70
2023-05-18T19:47:33.792Z,7.65
2023-05-18T19:49:36.666Z,11.77
2023-05-18T19:51:40.877Z,10.35
2023-05-18T19:53:44.634Z,8.75
2023-05-18T19:55:48.902Z,6.10
2023-05-18T19:57:51.933Z,5.90
2023-05-18T19:59:54.748Z,7.22
2023-05-18T20:01:59.298Z,6.30
2023-05-18T20:06:05.228Z,9.77
2023-05-18T20:08:09.968Z,7.88
2023-05-18T20:10:12.845Z,8.68
2023-05-18T20:12:15.765Z,8.13
2023-05-18T20:14:21.302Z,10.40
2023-05-18T20:16:26.299Z,7.88
2023-05-18T20:18:29.276Z,8.80
2023-05-18T20:20:33.409Z,12.27
2023-05-18T20:22:36.492Z,7.55
2023-05-18T20:24:43.242Z,11.48
2023-05-18T20:26:46.372Z,9.45
2023-05-18T20:28:52.959Z,8.23
2023-05-18T20:30:55.815Z,7.90
2023-05-18T20:32:59.275Z,9.05
2023-05-18T20:35:02.342Z,11.55
2023-05-18T20:37:08.489Z,11.50
2023-05-18T20:39:23.010Z,6.22
2023-05-18T20:41:28.198Z,10.43
2023-05-18T20:43:31.798Z,15.40
2023-05-18T20:45:36.374Z,7.20
2023-05-18T20:47:42.686Z,6.50
2023-05-18T20:49:48.649Z,9.02
2023-05-18T20:51:52.148Z,10.00
2023-05-18T20:53:55.095Z,7.18
2023-05-18T20:56:01.093Z,8.95
2023-05-18T20:58:05.285Z,8.65
2023-05-18T21:00:09.364Z,13.68
2023-05-18T21:02:12.332Z,8.35
2023-05-18T21:04:17.155Z,8.68
2023-05-18T21:06:21.488Z,6.65
2023-05-18T21:08:24.257Z,9.15
2023-05-18T21:10:27.136Z,7.88
2023-05-18T21:12:30.077Z,7.35
2023-05-18T21:14:34.265Z,6.63
2023-05-18T21:16:37.546Z,10.23
2023-05-18T21:18:40.823Z,13.70
2023-05-18T21:20:43.720Z,7.13
2023-05-18T21:22:46.539Z,6.28
2023-05-18T21:24:49.598Z,7.47
2023-05-18T21:26:52.806Z,10.88
2023-05-18T21:28:55.691Z,10.90
2023-05-18T21:30:59.899Z,7.88
2023-05-18T21:33:03.125Z,9.10
2023-05-18T21:35:07.196Z,9.77
2023-05-18T21:37:10.826Z,6.60
2023-05-18T21:39:13.775Z,4.35
2023-05-18T21:41:17.798Z,7.53
2023-05-18T21:43:20.631Z,6.25
2023-05-18T21:45:23.513Z,6.15
2023-05-18T21:47:27.740Z,6.32
2023-05-18T21:49:30.727Z,7.15
2023-05-18T21:51:33.729Z,7.85
2023-05-18T21:53:36.588Z,7.47
2023-05-18T21:55:39.644Z,10.52
2023-05-18T21:57:42.463Z,12.45
2023-05-18T21:59:45.333Z,7.75
2023-05-18T22:01:48.228Z,6.30
2023-05-18T22:03:52.454Z,9.75
2023-05-18T22:05:55.319Z,5.97
2023-05-18T22:07:58.901Z,8.32
2023-05-18T22:10:01.733Z,7.15
2023-05-18T22:12:04.961Z,6.53
2023-05-18T22:14:07.855Z,9.27
2023-05-18T22:16:10.816Z,8.68
2023-05-18T22:18:13.715Z,7.35
2023-05-18T22:20:17.985Z,10.45
2023-05-18T22:22:30.055Z,11.13
2023-05-18T22:24:33.772Z,7.40
2023-05-18T22:26:36.598Z,8.45
2023-05-18T22:28:39.484Z,8.68
2023-05-18T22:30:42.401Z,9.50
2023-05-18T22:32:47.263Z,8.30
2023-05-18T22:34:50.256Z,15.05
2023-05-18T22:36:54.513Z,6.00
2023-05-18T22:38:57.705Z,5.85
2023-05-18T22:41:00.711Z,6.93
2023-05-18T22:43:03.560Z,8.95
2023-05-18T22:45:07.304Z,8.23
2023-05-18T22:47:12.055Z,7.30
2023-05-18T22:49:15.098Z,10.52
2023-05-18T22:51:18.688Z,7.10
2023-05-18T22:53:22.913Z,6.32
2023-05-18T22:55:25.740Z,7.75
2023-05-18T22:57:28.802Z,6.07
2023-05-18T22:59:31.605Z,6.53
2023-05-18T23:01:37.572Z,8.98
2023-05-18T23:03:40.532Z,7.13
2023-05-18T23:05:43.501Z,6.05
2023-05-18T23:07:46.887Z,7.38
2023-05-18T23:09:52.163Z,8.88
2023-05-18T23:11:55.683Z,6.90
2023-05-18T23:14:02.567Z,8.73
2023-05-18T23:16:10.224Z,7.90
2023-05-18T23:18:13.286Z,5.97
2023-05-18T23:20:16.141Z,5.90
2023-05-18T23:22:19.037Z,8.23
2023-05-18T23:24:22.106Z,7.78
2023-05-18T23:26:26.279Z,6.95
2023-05-18T23:28:29.741Z,6.80
2023-05-18T23:30:33.252Z,9.88
2023-05-18T23:32:36.893Z,13.02
2023-05-18T23:34:41.318Z,8.55
2023-05-18T23:36:46.371Z,9.68
2023-05-18T23:38:51.660Z,15.20
2023-05-18T23:40:55.357Z,17.63
2023-05-18T23:43:00.699Z,28.92
2023-05-18T23:45:04.334Z,29.05
2023-05-18T23:47:07.643Z,31.30
2023-05-18T23:49:11.069Z,33.13
2023-05-18T23:51:17.477Z,24.17
2023-05-18T23:53:23.194Z,28.65
2023-05-18T23:55:27.821Z,22.05
2023-05-18T23:57:31.491Z,15.82
2023-05-18T23:59:37.023Z,13.55
